NOZ1972 ENZV-LEMG
Flight info
| Callsign | NOZ1972 |
|---|---|
| Flight time | 3h 19m |
| Altitude | 32000 |
| Route | LAPOT DCT ODMIX DCT ROBEM DCT BELOX DCT MEDOG DCT SALCO DCT TERKU DCT NOVAN DCT DELOG N864 VULPE |
| Aircraft | A320/M-SDE3FGHIRWY/LB1 |
Departure
| Time | 2026-03-23 11:47 |
|---|---|
| Airport | Stavanger Airport, Sola (ENZV) |
Arrival
| Time | 2026-03-23 15:06 |
|---|---|
| Airport | Málaga-Costa del Sol Airport (LEMG) |
| Time | Latitude | Longitude | Altitude | Speed | Heading |
|---|---|---|---|---|---|
| 2026-03-23 11:26 | 58.88129 | 5.63021 | 31 ft | 0 kts | 315° |
| 2026-03-23 11:34 | 58.88128 | 5.63023 | 31 ft | 1 kts | 315° |
| 2026-03-23 11:34 | 58.88117 | 5.63045 | 17 ft | 3 kts | 315° |
| 2026-03-23 11:35 | 58.88103 | 5.63072 | 33 ft | 3 kts | 315° |
| 2026-03-23 11:35 | 58.88089 | 5.63098 | 31 ft | 3 kts | 313° |
| 2026-03-23 11:35 | 58.88077 | 5.63128 | 27 ft | 3 kts | 292° |
| 2026-03-23 11:35 | 58.88073 | 5.63163 | 27 ft | 3 kts | 261° |
| 2026-03-23 11:36 | 58.88078 | 5.63191 | 28 ft | 2 kts | 225° |
| 2026-03-23 11:36 | 58.88082 | 5.63200 | 28 ft | 1 kts | 225° |
| 2026-03-23 11:38 | 58.88082 | 5.63199 | 28 ft | 0 kts | 225° |
| 2026-03-23 11:38 | 58.88070 | 5.63177 | 28 ft | 8 kts | 225° |
| 2026-03-23 11:38 | 58.88020 | 5.63112 | 27 ft | 9 kts | 183° |
| 2026-03-23 11:38 | 58.87974 | 5.63167 | 28 ft | 12 kts | 130° |
| 2026-03-23 11:39 | 58.87943 | 5.63303 | 30 ft | 9 kts | 130° |
| 2026-03-23 11:39 | 58.87886 | 5.63309 | 31 ft | 13 kts | 191° |
| 2026-03-23 11:39 | 58.87781 | 5.63299 | 29 ft | 15 kts | 178° |
| 2026-03-23 11:39 | 58.87686 | 5.63304 | 31 ft | 12 kts | 182° |
| 2026-03-23 11:40 | 58.87585 | 5.63299 | 31 ft | 22 kts | 181° |
| 2026-03-23 11:40 | 58.87394 | 5.63303 | 31 ft | 29 kts | 179° |
| 2026-03-23 11:40 | 58.87191 | 5.63309 | 32 ft | 29 kts | 179° |
| 2026-03-23 11:40 | 58.87016 | 5.63366 | 32 ft | 24 kts | 138° |
| 2026-03-23 11:41 | 58.87020 | 5.63604 | 35 ft | 17 kts | 59° |
| 2026-03-23 11:41 | 58.87075 | 5.63781 | 35 ft | 15 kts | 52° |
| 2026-03-23 11:41 | 58.87159 | 5.63960 | 36 ft | 21 kts | 46° |
| 2026-03-23 11:41 | 58.87256 | 5.64137 | 38 ft | 16 kts | 43° |
| 2026-03-23 11:42 | 58.87270 | 5.64163 | 38 ft | 0 kts | 43° |
| 2026-03-23 11:43 | 58.87277 | 5.64174 | 38 ft | 5 kts | 42° |
| 2026-03-23 11:44 | 58.87290 | 5.64197 | 38 ft | 6 kts | 41° |
| 2026-03-23 11:44 | 58.87295 | 5.64206 | 38 ft | 7 kts | 41° |
| 2026-03-23 11:44 | 58.87325 | 5.64254 | 38 ft | 13 kts | 40° |
| 2026-03-23 11:45 | 58.87384 | 5.64356 | 37 ft | 18 kts | 41° |
| 2026-03-23 11:45 | 58.87481 | 5.64486 | 36 ft | 16 kts | 20° |
| 2026-03-23 11:45 | 58.87571 | 5.64493 | 34 ft | 12 kts | 309° |
| 2026-03-23 11:45 | 58.87594 | 5.64341 | 35 ft | 11 kts | 285° |
| 2026-03-23 11:46 | 58.87603 | 5.64275 | 35 ft | 0 kts | 287° |
| 2026-03-23 11:46 | 58.87645 | 5.63999 | 34 ft | 61 kts | 286° |
| 2026-03-23 11:46 | 58.87842 | 5.62703 | 27 ft | 136 kts | 286° |
| 2026-03-23 11:46 | 58.88142 | 5.60706 | 466 ft | 155 kts | 285° |
| 2026-03-23 11:47 | 58.88427 | 5.58831 | 1566 ft | 144 kts | 286° |
| 2026-03-23 11:47 | 58.88715 | 5.56926 | 2084 ft | 154 kts | 286° |
| 2026-03-23 11:47 | 58.89035 | 5.54792 | 2350 ft | 176 kts | 285° |
| 2026-03-23 11:48 | 58.89806 | 5.49627 | 2930 ft | 223 kts | 286° |
| 2026-03-23 11:48 | 58.90249 | 5.46673 | 3619 ft | 231 kts | 286° |
| 2026-03-23 11:48 | 58.90702 | 5.43664 | 4463 ft | 234 kts | 286° |
| 2026-03-23 11:48 | 58.91039 | 5.40571 | 5293 ft | 238 kts | 268° |
| 2026-03-23 11:49 | 58.90478 | 5.37573 | 6111 ft | 246 kts | 232° |
| 2026-03-23 11:49 | 58.89046 | 5.35688 | 6910 ft | 256 kts | 206° |
| 2026-03-23 11:49 | 58.87348 | 5.34570 | 7723 ft | 260 kts | 199° |
| 2026-03-23 11:49 | 58.85510 | 5.34446 | 8493 ft | 275 kts | 172° |
| 2026-03-23 11:50 | 58.83735 | 5.35974 | 9232 ft | 289 kts | 148° |
| 2026-03-23 11:50 | 58.82354 | 5.38951 | 9760 ft | 309 kts | 120° |
| 2026-03-23 11:50 | 58.81437 | 5.42783 | 10287 ft | 322 kts | 121° |
| 2026-03-23 11:50 | 58.80030 | 5.46257 | 10454 ft | 338 kts | 143° |
| 2026-03-23 11:51 | 58.78018 | 5.48657 | 10790 ft | 343 kts | 164° |
| 2026-03-23 11:51 | 58.75715 | 5.49684 | 11402 ft | 338 kts | 182° |
| 2026-03-23 11:51 | 58.73400 | 5.49319 | 12070 ft | 332 kts | 200° |
| 2026-03-23 11:51 | 58.71301 | 5.47636 | 12756 ft | 325 kts | 218° |
| 2026-03-23 11:52 | 58.69440 | 5.45176 | 13450 ft | 326 kts | 220° |
| 2026-03-23 11:52 | 58.67568 | 5.42658 | 14107 ft | 330 kts | 220° |
| 2026-03-23 11:52 | 58.65677 | 5.40125 | 14704 ft | 333 kts | 220° |
| 2026-03-23 11:52 | 58.63766 | 5.37572 | 15304 ft | 336 kts | 220° |
| 2026-03-23 11:53 | 58.61839 | 5.34997 | 15883 ft | 339 kts | 221° |
| 2026-03-23 11:53 | 58.60091 | 5.32015 | 16449 ft | 335 kts | 235° |
| 2026-03-23 11:53 | 58.58814 | 5.28332 | 17032 ft | 330 kts | 249° |
| 2026-03-23 11:53 | 58.58069 | 5.24193 | 17628 ft | 328 kts | 262° |
| 2026-03-23 11:54 | 58.57881 | 5.19860 | 18220 ft | 327 kts | 274° |
| 2026-03-23 11:54 | 58.58162 | 5.15516 | 18753 ft | 329 kts | 279° |
| 2026-03-23 11:54 | 58.58490 | 5.11168 | 19277 ft | 331 kts | 279° |
| 2026-03-23 11:54 | 58.58816 | 5.06788 | 19808 ft | 333 kts | 279° |
| 2026-03-23 11:55 | 58.59140 | 5.02388 | 20352 ft | 334 kts | 279° |
| 2026-03-23 11:55 | 58.59463 | 4.97956 | 20895 ft | 336 kts | 279° |
| 2026-03-23 11:55 | 58.59785 | 4.93508 | 21442 ft | 337 kts | 279° |
| 2026-03-23 11:55 | 58.60107 | 4.89045 | 21974 ft | 339 kts | 279° |
| 2026-03-23 11:56 | 58.60430 | 4.84556 | 22512 ft | 341 kts | 279° |
| 2026-03-23 11:56 | 58.60755 | 4.80038 | 23026 ft | 343 kts | 279° |
| 2026-03-23 11:56 | 58.61079 | 4.75501 | 23525 ft | 344 kts | 280° |
| 2026-03-23 11:56 | 58.61404 | 4.70944 | 23948 ft | 346 kts | 280° |
| 2026-03-23 11:57 | 58.61729 | 4.66352 | 24340 ft | 348 kts | 280° |
| 2026-03-23 11:57 | 58.62051 | 4.61754 | 24731 ft | 349 kts | 280° |
| 2026-03-23 11:57 | 58.62374 | 4.57128 | 25112 ft | 350 kts | 281° |
| 2026-03-23 11:57 | 58.62654 | 4.52475 | 25481 ft | 354 kts | 276° |
| 2026-03-23 11:58 | 58.62474 | 4.47723 | 25833 ft | 362 kts | 265° |
| 2026-03-23 11:58 | 58.61707 | 4.43041 | 26178 ft | 375 kts | 253° |
| 2026-03-23 11:58 | 58.60344 | 4.38675 | 26508 ft | 391 kts | 241° |
| 2026-03-23 11:58 | 58.58456 | 4.34811 | 26836 ft | 401 kts | 234° |
| 2026-03-23 11:59 | 58.56468 | 4.31038 | 27153 ft | 403 kts | 234° |
| 2026-03-23 11:59 | 58.54472 | 4.27256 | 27464 ft | 405 kts | 234° |
| 2026-03-23 11:59 | 58.52460 | 4.23449 | 27760 ft | 408 kts | 235° |
| 2026-03-23 11:59 | 58.50437 | 4.19620 | 28060 ft | 410 kts | 235° |
| 2026-03-23 12:00 | 58.48404 | 4.15773 | 28352 ft | 412 kts | 235° |
| 2026-03-23 12:00 | 58.46359 | 4.11906 | 28638 ft | 415 kts | 235° |
| 2026-03-23 12:00 | 58.44302 | 4.08025 | 28917 ft | 417 kts | 235° |
| 2026-03-23 12:00 | 58.42233 | 4.04133 | 29187 ft | 419 kts | 235° |
| 2026-03-23 12:01 | 58.40147 | 4.00215 | 29393 ft | 422 kts | 235° |
| 2026-03-23 12:01 | 58.38042 | 3.96270 | 29606 ft | 425 kts | 235° |
| 2026-03-23 12:01 | 58.35928 | 3.92314 | 29841 ft | 428 kts | 235° |
| 2026-03-23 12:01 | 58.33798 | 3.88333 | 30092 ft | 430 kts | 235° |
| 2026-03-23 12:02 | 58.31659 | 3.84348 | 30296 ft | 432 kts | 235° |
| 2026-03-23 12:02 | 58.29504 | 3.80338 | 30508 ft | 434 kts | 236° |
| 2026-03-23 12:02 | 58.27343 | 3.76323 | 30709 ft | 435 kts | 236° |
| 2026-03-23 12:02 | 58.25177 | 3.72310 | 30992 ft | 434 kts | 236° |
| 2026-03-23 12:03 | 58.23011 | 3.68312 | 31271 ft | 433 kts | 236° |
| 2026-03-23 12:03 | 58.20853 | 3.64343 | 31606 ft | 431 kts | 236° |
| 2026-03-23 12:03 | 58.18709 | 3.60398 | 31924 ft | 430 kts | 236° |
| 2026-03-23 12:03 | 58.16562 | 3.56453 | 32088 ft | 428 kts | 236° |
| 2026-03-23 12:04 | 58.12366 | 3.48799 | 32120 ft | 415 kts | 237° |
| 2026-03-23 12:04 | 58.08168 | 3.41046 | 32118 ft | 429 kts | 237° |
| 2026-03-23 12:05 | 58.03832 | 3.33046 | 32121 ft | 442 kts | 236° |
| 2026-03-23 12:05 | 57.99357 | 3.24922 | 32121 ft | 450 kts | 235° |
| 2026-03-23 12:06 | 57.94798 | 3.16720 | 32121 ft | 456 kts | 235° |
| 2026-03-23 12:06 | 57.90194 | 3.08443 | 32121 ft | 459 kts | 235° |
| 2026-03-23 12:07 | 57.85572 | 3.00137 | 32127 ft | 460 kts | 234° |
| 2026-03-23 12:07 | 57.80926 | 2.91817 | 32122 ft | 462 kts | 234° |
| 2026-03-23 12:08 | 57.76262 | 2.83502 | 32123 ft | 463 kts | 234° |
| 2026-03-23 12:08 | 57.71582 | 2.75210 | 32123 ft | 463 kts | 234° |
| 2026-03-23 12:09 | 57.66900 | 2.66940 | 32119 ft | 463 kts | 234° |
| 2026-03-23 12:09 | 57.62219 | 2.58661 | 32083 ft | 463 kts | 234° |
| 2026-03-23 12:10 | 57.57527 | 2.50409 | 32116 ft | 465 kts | 234° |
| 2026-03-23 12:10 | 57.52838 | 2.42204 | 32120 ft | 466 kts | 234° |
| 2026-03-23 12:11 | 57.48078 | 2.33921 | 32118 ft | 464 kts | 233° |
| 2026-03-23 12:11 | 57.43395 | 2.25781 | 32124 ft | 464 kts | 233° |
| 2026-03-23 12:12 | 57.38651 | 2.17563 | 32126 ft | 464 kts | 233° |
| 2026-03-23 12:12 | 57.33965 | 2.09479 | 32101 ft | 464 kts | 233° |
| 2026-03-23 12:13 | 57.29227 | 2.01343 | 32109 ft | 465 kts | 233° |
| 2026-03-23 12:13 | 57.24472 | 1.93221 | 32133 ft | 466 kts | 233° |
| 2026-03-23 12:14 | 57.19707 | 1.85086 | 32131 ft | 467 kts | 233° |
| 2026-03-23 12:14 | 57.14937 | 1.76952 | 32108 ft | 467 kts | 233° |
| 2026-03-23 12:15 | 57.10138 | 1.68824 | 32132 ft | 465 kts | 232° |
| 2026-03-23 12:15 | 57.05365 | 1.60772 | 32106 ft | 467 kts | 232° |
| 2026-03-23 12:16 | 57.00562 | 1.52716 | 32112 ft | 468 kts | 232° |
| 2026-03-23 12:16 | 56.95760 | 1.44669 | 32117 ft | 468 kts | 232° |
| 2026-03-23 12:17 | 56.91030 | 1.36508 | 32118 ft | 467 kts | 233° |
| 2026-03-23 12:17 | 56.86345 | 1.28292 | 32128 ft | 467 kts | 233° |
| 2026-03-23 12:18 | 56.81662 | 1.20154 | 32131 ft | 467 kts | 233° |
| 2026-03-23 12:18 | 56.76917 | 1.12003 | 32132 ft | 469 kts | 232° |
| 2026-03-23 12:19 | 56.72130 | 1.03837 | 32131 ft | 468 kts | 232° |
| 2026-03-23 12:19 | 56.67411 | 0.95789 | 32130 ft | 468 kts | 232° |
| 2026-03-23 12:20 | 56.62629 | 0.87653 | 32128 ft | 468 kts | 232° |
| 2026-03-23 12:20 | 56.57877 | 0.79579 | 32128 ft | 468 kts | 232° |
| 2026-03-23 12:21 | 56.53137 | 0.71571 | 32097 ft | 469 kts | 232° |
| 2026-03-23 12:21 | 56.48309 | 0.63479 | 32106 ft | 470 kts | 232° |
| 2026-03-23 12:22 | 56.43499 | 0.55457 | 32083 ft | 471 kts | 232° |
| 2026-03-23 12:22 | 56.38694 | 0.47435 | 32110 ft | 470 kts | 232° |
| 2026-03-23 12:23 | 56.33900 | 0.39434 | 32123 ft | 470 kts | 232° |
| 2026-03-23 12:23 | 56.29091 | 0.31448 | 32099 ft | 470 kts | 232° |
| 2026-03-23 12:24 | 56.24274 | 0.23488 | 32104 ft | 471 kts | 232° |
| 2026-03-23 12:25 | 56.17838 | 0.12899 | 32110 ft | 472 kts | 231° |
| 2026-03-23 12:25 | 56.12990 | 0.04963 | 32111 ft | 472 kts | 231° |
| 2026-03-23 12:26 | 56.07343 | -0.04242 | 32109 ft | 472 kts | 231° |
| 2026-03-23 12:26 | 56.02489 | -0.12116 | 32133 ft | 471 kts | 231° |
| 2026-03-23 12:27 | 55.96004 | -0.22608 | 32149 ft | 470 kts | 231° |
| 2026-03-23 12:27 | 55.91159 | -0.30426 | 32134 ft | 469 kts | 231° |
| 2026-03-23 12:28 | 55.86310 | -0.38210 | 32143 ft | 469 kts | 231° |
| 2026-03-23 12:28 | 55.81459 | -0.45982 | 32139 ft | 469 kts | 231° |
| 2026-03-23 12:29 | 55.76598 | -0.53731 | 32103 ft | 470 kts | 231° |
| 2026-03-23 12:29 | 55.71724 | -0.61476 | 32115 ft | 471 kts | 231° |
| 2026-03-23 12:30 | 55.66839 | -0.69234 | 32122 ft | 472 kts | 231° |
| 2026-03-23 12:30 | 55.61931 | -0.76993 | 32126 ft | 473 kts | 230° |
| 2026-03-23 12:31 | 55.57012 | -0.84729 | 32138 ft | 474 kts | 230° |
| 2026-03-23 12:31 | 55.52084 | -0.92452 | 32140 ft | 474 kts | 230° |
| 2026-03-23 12:32 | 55.47143 | -1.00163 | 32132 ft | 475 kts | 230° |
| 2026-03-23 12:32 | 55.42268 | -1.07895 | 32136 ft | 474 kts | 231° |
| 2026-03-23 12:33 | 55.37494 | -1.15851 | 32135 ft | 471 kts | 232° |
| 2026-03-23 12:33 | 55.32755 | -1.23794 | 32141 ft | 470 kts | 232° |
| 2026-03-23 12:34 | 55.27988 | -1.31668 | 32134 ft | 471 kts | 231° |
| 2026-03-23 12:34 | 55.23189 | -1.39496 | 32130 ft | 472 kts | 231° |
| 2026-03-23 12:35 | 55.18372 | -1.47346 | 32134 ft | 474 kts | 231° |
| 2026-03-23 12:35 | 55.13538 | -1.55211 | 32125 ft | 475 kts | 231° |
| 2026-03-23 12:36 | 55.08690 | -1.63051 | 32134 ft | 475 kts | 231° |
| 2026-03-23 12:36 | 55.03841 | -1.70870 | 32135 ft | 474 kts | 231° |
| 2026-03-23 12:37 | 54.99000 | -1.78648 | 32126 ft | 473 kts | 231° |
| 2026-03-23 12:37 | 54.94149 | -1.86424 | 32123 ft | 474 kts | 231° |
| 2026-03-23 12:38 | 54.89288 | -1.94193 | 32111 ft | 475 kts | 231° |
| 2026-03-23 12:38 | 54.84418 | -2.01952 | 32110 ft | 475 kts | 230° |
| 2026-03-23 12:39 | 54.79540 | -2.09691 | 32120 ft | 475 kts | 230° |
| 2026-03-23 12:39 | 54.74652 | -2.17417 | 32093 ft | 475 kts | 230° |
| 2026-03-23 12:40 | 54.69762 | -2.25103 | 32092 ft | 475 kts | 230° |
| 2026-03-23 12:40 | 54.64863 | -2.32788 | 32100 ft | 476 kts | 230° |
| 2026-03-23 12:41 | 54.59959 | -2.40469 | 32115 ft | 476 kts | 230° |
| 2026-03-23 12:41 | 54.55045 | -2.48130 | 32120 ft | 476 kts | 230° |
| 2026-03-23 12:42 | 54.50127 | -2.55766 | 32131 ft | 476 kts | 230° |
| 2026-03-23 12:42 | 54.45206 | -2.63395 | 32114 ft | 477 kts | 230° |
| 2026-03-23 12:43 | 54.40273 | -2.71024 | 32114 ft | 477 kts | 229° |
| 2026-03-23 12:43 | 54.35330 | -2.78633 | 32140 ft | 477 kts | 229° |
| 2026-03-23 12:44 | 54.30380 | -2.86212 | 32156 ft | 477 kts | 229° |
| 2026-03-23 12:44 | 54.25428 | -2.93782 | 32162 ft | 478 kts | 229° |
| 2026-03-23 12:45 | 54.20469 | -3.01334 | 32155 ft | 478 kts | 229° |
| 2026-03-23 12:45 | 54.15499 | -3.08884 | 32149 ft | 479 kts | 229° |
| 2026-03-23 12:46 | 54.10508 | -3.16421 | 32151 ft | 480 kts | 229° |
| 2026-03-23 12:46 | 54.05508 | -3.23937 | 32161 ft | 479 kts | 229° |
| 2026-03-23 12:47 | 54.00520 | -3.31431 | 32177 ft | 478 kts | 229° |
| 2026-03-23 12:47 | 53.95528 | -3.38921 | 32184 ft | 478 kts | 229° |
| 2026-03-23 12:48 | 53.90253 | -3.45892 | 32167 ft | 492 kts | 214° |
| 2026-03-23 12:48 | 53.87050 | -3.48118 | 32168 ft | 505 kts | 201° |
| 2026-03-23 12:48 | 53.83554 | -3.49140 | 32162 ft | 516 kts | 188° |
| 2026-03-23 12:49 | 53.76333 | -3.49349 | 32169 ft | 519 kts | 186° |
| 2026-03-23 12:49 | 53.69109 | -3.49580 | 32168 ft | 520 kts | 186° |
| 2026-03-23 12:50 | 53.61867 | -3.49843 | 32167 ft | 521 kts | 186° |
| 2026-03-23 12:50 | 53.54622 | -3.50087 | 32166 ft | 521 kts | 186° |
| 2026-03-23 12:51 | 53.47365 | -3.50299 | 32165 ft | 521 kts | 186° |
| 2026-03-23 12:51 | 53.40112 | -3.50521 | 32158 ft | 522 kts | 186° |
| 2026-03-23 12:52 | 53.32848 | -3.50757 | 32163 ft | 522 kts | 186° |
| 2026-03-23 12:52 | 53.25588 | -3.50996 | 32171 ft | 522 kts | 186° |
| 2026-03-23 12:53 | 53.18326 | -3.51219 | 32164 ft | 522 kts | 185° |
| 2026-03-23 12:53 | 53.11061 | -3.51438 | 32163 ft | 523 kts | 185° |
| 2026-03-23 12:54 | 53.03787 | -3.51651 | 32161 ft | 523 kts | 185° |
| 2026-03-23 12:54 | 52.96509 | -3.51869 | 32167 ft | 523 kts | 185° |
| 2026-03-23 12:55 | 52.89231 | -3.52100 | 32154 ft | 523 kts | 185° |
| 2026-03-23 12:55 | 52.81943 | -3.52328 | 32157 ft | 524 kts | 185° |
| 2026-03-23 12:56 | 52.74653 | -3.52551 | 32184 ft | 524 kts | 185° |
| 2026-03-23 12:56 | 52.67368 | -3.52780 | 32187 ft | 524 kts | 185° |
| 2026-03-23 12:57 | 52.60074 | -3.52998 | 32178 ft | 524 kts | 185° |
| 2026-03-23 12:57 | 52.52781 | -3.53212 | 32176 ft | 524 kts | 185° |
| 2026-03-23 12:58 | 52.45535 | -3.53435 | 32179 ft | 524 kts | 184° |
| 2026-03-23 12:58 | 52.38240 | -3.53663 | 32180 ft | 525 kts | 184° |
| 2026-03-23 12:59 | 52.30935 | -3.53874 | 32190 ft | 525 kts | 184° |
| 2026-03-23 12:59 | 52.23622 | -3.54094 | 32190 ft | 526 kts | 185° |
| 2026-03-23 13:00 | 52.16300 | -3.54321 | 32196 ft | 527 kts | 184° |
| 2026-03-23 13:01 | 52.05291 | -3.54642 | 32198 ft | 527 kts | 184° |
| 2026-03-23 13:01 | 51.97955 | -3.54858 | 32187 ft | 527 kts | 184° |
| 2026-03-23 13:02 | 51.90605 | -3.55024 | 32189 ft | 529 kts | 182° |
| 2026-03-23 13:02 | 51.83246 | -3.54937 | 32203 ft | 530 kts | 181° |
| 2026-03-23 13:03 | 51.75869 | -3.54761 | 32200 ft | 530 kts | 182° |
| 2026-03-23 13:03 | 51.68478 | -3.54658 | 32208 ft | 531 kts | 182° |
| 2026-03-23 13:04 | 51.61086 | -3.54622 | 32213 ft | 532 kts | 182° |
| 2026-03-23 13:04 | 51.53684 | -3.54571 | 32216 ft | 532 kts | 182° |
| 2026-03-23 13:05 | 51.46276 | -3.54495 | 32220 ft | 533 kts | 181° |
| 2026-03-23 13:05 | 51.38858 | -3.54415 | 32221 ft | 533 kts | 181° |
| 2026-03-23 13:06 | 51.31441 | -3.54347 | 32208 ft | 533 kts | 181° |
| 2026-03-23 13:06 | 51.24019 | -3.54288 | 32202 ft | 534 kts | 181° |
| 2026-03-23 13:07 | 51.16583 | -3.54221 | 32196 ft | 534 kts | 181° |
| 2026-03-23 13:07 | 51.09150 | -3.54151 | 32197 ft | 534 kts | 181° |
| 2026-03-23 13:08 | 51.02918 | -3.54097 | 32200 ft | 534 kts | 181° |
| 2026-03-23 13:08 | 50.95485 | -3.54038 | 32204 ft | 535 kts | 181° |
| 2026-03-23 13:09 | 50.88040 | -3.53961 | 32213 ft | 534 kts | 181° |
| 2026-03-23 13:09 | 50.80602 | -3.53884 | 32212 ft | 535 kts | 180° |
| 2026-03-23 13:10 | 50.73162 | -3.53814 | 32214 ft | 535 kts | 180° |
| 2026-03-23 13:10 | 50.65713 | -3.53759 | 32209 ft | 535 kts | 181° |
| 2026-03-23 13:11 | 50.58311 | -3.53701 | 32198 ft | 535 kts | 180° |
| 2026-03-23 13:11 | 50.50855 | -3.53642 | 32216 ft | 536 kts | 180° |
| 2026-03-23 13:12 | 50.43388 | -3.53576 | 32220 ft | 536 kts | 180° |
| 2026-03-23 13:12 | 50.35927 | -3.53506 | 32216 ft | 536 kts | 180° |
| 2026-03-23 13:13 | 50.28460 | -3.53427 | 32220 ft | 537 kts | 180° |
| 2026-03-23 13:13 | 50.20989 | -3.53358 | 32226 ft | 537 kts | 180° |
| 2026-03-23 13:14 | 50.13516 | -3.53306 | 32234 ft | 537 kts | 180° |
| 2026-03-23 13:14 | 50.06046 | -3.53247 | 32232 ft | 537 kts | 180° |
| 2026-03-23 13:15 | 49.98566 | -3.53175 | 32233 ft | 537 kts | 180° |
| 2026-03-23 13:15 | 49.91084 | -3.53114 | 32235 ft | 538 kts | 179° |
| 2026-03-23 13:16 | 49.83598 | -3.53052 | 32232 ft | 538 kts | 179° |
| 2026-03-23 13:16 | 49.76110 | -3.52982 | 32234 ft | 538 kts | 179° |
| 2026-03-23 13:17 | 49.68622 | -3.53054 | 32243 ft | 538 kts | 181° |
| 2026-03-23 13:17 | 49.61132 | -3.53501 | 32233 ft | 539 kts | 182° |
| 2026-03-23 13:18 | 49.53641 | -3.54038 | 32238 ft | 539 kts | 182° |
| 2026-03-23 13:18 | 49.46143 | -3.54480 | 32246 ft | 539 kts | 181° |
| 2026-03-23 13:19 | 49.38648 | -3.54832 | 32244 ft | 539 kts | 181° |
| 2026-03-23 13:19 | 49.31144 | -3.55181 | 32235 ft | 539 kts | 181° |
| 2026-03-23 13:20 | 49.23648 | -3.55573 | 32236 ft | 539 kts | 181° |
| 2026-03-23 13:20 | 49.16154 | -3.55975 | 32240 ft | 539 kts | 181° |
| 2026-03-23 13:21 | 49.08661 | -3.56358 | 32241 ft | 539 kts | 181° |
| 2026-03-23 13:21 | 49.01168 | -3.56740 | 32241 ft | 539 kts | 181° |
| 2026-03-23 13:22 | 48.93672 | -3.57127 | 32232 ft | 539 kts | 181° |
| 2026-03-23 13:22 | 48.86178 | -3.57506 | 32225 ft | 539 kts | 181° |
| 2026-03-23 13:23 | 48.78679 | -3.57889 | 32222 ft | 539 kts | 181° |
| 2026-03-23 13:23 | 48.71180 | -3.58273 | 32222 ft | 539 kts | 181° |
| 2026-03-23 13:24 | 48.63682 | -3.58646 | 32228 ft | 539 kts | 181° |
| 2026-03-23 13:24 | 48.56181 | -3.59026 | 32228 ft | 539 kts | 180° |
| 2026-03-23 13:25 | 48.48672 | -3.59409 | 32229 ft | 540 kts | 180° |
| 2026-03-23 13:25 | 48.41167 | -3.59782 | 32227 ft | 540 kts | 180° |
| 2026-03-23 13:26 | 48.33651 | -3.60158 | 32224 ft | 540 kts | 180° |
| 2026-03-23 13:26 | 48.26139 | -3.60536 | 32228 ft | 540 kts | 180° |
| 2026-03-23 13:27 | 48.18629 | -3.60908 | 32229 ft | 540 kts | 180° |
| 2026-03-23 13:27 | 48.11108 | -3.61282 | 32231 ft | 540 kts | 180° |
| 2026-03-23 13:28 | 48.03596 | -3.61643 | 32230 ft | 540 kts | 180° |
| 2026-03-23 13:28 | 47.96080 | -3.62014 | 32231 ft | 540 kts | 180° |
| 2026-03-23 13:29 | 47.88607 | -3.62392 | 32233 ft | 541 kts | 180° |
| 2026-03-23 13:29 | 47.81087 | -3.62762 | 32225 ft | 541 kts | 180° |
| 2026-03-23 13:30 | 47.73517 | -3.63132 | 32234 ft | 541 kts | 179° |
| 2026-03-23 13:30 | 47.66037 | -3.63507 | 32231 ft | 541 kts | 179° |
| 2026-03-23 13:31 | 47.58507 | -3.63876 | 32232 ft | 541 kts | 179° |
| 2026-03-23 13:31 | 47.50976 | -3.64243 | 32241 ft | 541 kts | 179° |
| 2026-03-23 13:32 | 47.43447 | -3.64618 | 32247 ft | 542 kts | 179° |
| 2026-03-23 13:32 | 47.35854 | -3.64982 | 32244 ft | 542 kts | 179° |
| 2026-03-23 13:33 | 47.28369 | -3.65342 | 32250 ft | 542 kts | 179° |
| 2026-03-23 13:33 | 47.20778 | -3.65724 | 32248 ft | 542 kts | 179° |
| 2026-03-23 13:34 | 47.13240 | -3.66086 | 32248 ft | 542 kts | 179° |
| 2026-03-23 13:34 | 47.05752 | -3.66433 | 32247 ft | 542 kts | 178° |
| 2026-03-23 13:35 | 46.98210 | -3.66800 | 32247 ft | 542 kts | 179° |
| 2026-03-23 13:35 | 46.90615 | -3.67169 | 32258 ft | 542 kts | 178° |
| 2026-03-23 13:36 | 46.83124 | -3.67525 | 32251 ft | 542 kts | 178° |
| 2026-03-23 13:36 | 46.75544 | -3.67880 | 32245 ft | 541 kts | 178° |
| 2026-03-23 13:37 | 46.68067 | -3.68223 | 32245 ft | 541 kts | 178° |
| 2026-03-23 13:37 | 46.60494 | -3.68568 | 32244 ft | 541 kts | 178° |
| 2026-03-23 13:38 | 46.53007 | -3.68911 | 32241 ft | 541 kts | 178° |
| 2026-03-23 13:38 | 46.45435 | -3.69275 | 32243 ft | 541 kts | 178° |
| 2026-03-23 13:39 | 46.37907 | -3.69635 | 32242 ft | 541 kts | 178° |
| 2026-03-23 13:39 | 46.30382 | -3.70042 | 32248 ft | 542 kts | 179° |
| 2026-03-23 13:40 | 46.22901 | -3.71002 | 32243 ft | 544 kts | 183° |
| 2026-03-23 13:40 | 46.15338 | -3.72346 | 32240 ft | 544 kts | 184° |
| 2026-03-23 13:41 | 46.07868 | -3.73603 | 32239 ft | 544 kts | 182° |
| 2026-03-23 13:41 | 46.00343 | -3.74710 | 32230 ft | 543 kts | 181° |
| 2026-03-23 13:42 | 45.92820 | -3.75761 | 32230 ft | 543 kts | 182° |
| 2026-03-23 13:42 | 45.85290 | -3.76854 | 32244 ft | 544 kts | 182° |
| 2026-03-23 13:43 | 45.77761 | -3.77988 | 32226 ft | 544 kts | 182° |
| 2026-03-23 13:43 | 45.70228 | -3.79120 | 32250 ft | 544 kts | 181° |
| 2026-03-23 13:44 | 45.62697 | -3.80219 | 32231 ft | 544 kts | 181° |
| 2026-03-23 13:44 | 45.55161 | -3.81296 | 32232 ft | 544 kts | 181° |
| 2026-03-23 13:45 | 45.47627 | -3.82389 | 32228 ft | 544 kts | 181° |
| 2026-03-23 13:45 | 45.40095 | -3.83496 | 32228 ft | 544 kts | 181° |
| 2026-03-23 13:46 | 45.32559 | -3.84586 | 32224 ft | 544 kts | 181° |
| 2026-03-23 13:46 | 45.25031 | -3.85664 | 32239 ft | 544 kts | 181° |
| 2026-03-23 13:47 | 45.17510 | -3.86738 | 32220 ft | 543 kts | 181° |
| 2026-03-23 13:47 | 45.09998 | -3.87829 | 32227 ft | 542 kts | 181° |
| 2026-03-23 13:48 | 45.02491 | -3.88921 | 32219 ft | 542 kts | 180° |
| 2026-03-23 13:48 | 44.96260 | -3.89798 | 32220 ft | 541 kts | 180° |
| 2026-03-23 13:49 | 44.88765 | -3.90847 | 32215 ft | 541 kts | 180° |
| 2026-03-23 13:49 | 44.81277 | -3.91903 | 32222 ft | 541 kts | 180° |
| 2026-03-23 13:50 | 44.73793 | -3.92963 | 32223 ft | 541 kts | 180° |
| 2026-03-23 13:50 | 44.66310 | -3.94040 | 32226 ft | 540 kts | 180° |
| 2026-03-23 13:51 | 44.55089 | -3.95647 | 32214 ft | 540 kts | 180° |
| 2026-03-23 13:51 | 44.47611 | -3.96692 | 32227 ft | 540 kts | 180° |
| 2026-03-23 13:52 | 44.40138 | -3.97728 | 32223 ft | 540 kts | 180° |
| 2026-03-23 13:52 | 44.32670 | -3.98633 | 32227 ft | 534 kts | 174° |
| 2026-03-23 13:53 | 44.25308 | -3.98020 | 32219 ft | 529 kts | 169° |
| 2026-03-23 13:53 | 44.17957 | -3.97285 | 32214 ft | 530 kts | 169° |
| 2026-03-23 13:54 | 44.10607 | -3.96561 | 32241 ft | 530 kts | 168° |
| 2026-03-23 13:54 | 44.03249 | -3.95849 | 32231 ft | 530 kts | 168° |
| 2026-03-23 13:55 | 43.95887 | -3.95141 | 32227 ft | 530 kts | 168° |
| 2026-03-23 13:55 | 43.88533 | -3.94428 | 32226 ft | 529 kts | 168° |
| 2026-03-23 13:56 | 43.81186 | -3.93707 | 32223 ft | 529 kts | 168° |
| 2026-03-23 13:56 | 43.73846 | -3.92999 | 32234 ft | 529 kts | 168° |
| 2026-03-23 13:57 | 43.66514 | -3.92296 | 32230 ft | 528 kts | 168° |
| 2026-03-23 13:57 | 43.59182 | -3.91590 | 32224 ft | 528 kts | 168° |
| 2026-03-23 13:58 | 43.51854 | -3.90891 | 32218 ft | 527 kts | 168° |
| 2026-03-23 13:58 | 43.44520 | -3.90372 | 32213 ft | 534 kts | 175° |
| 2026-03-23 13:59 | 43.37075 | -3.91417 | 32218 ft | 539 kts | 179° |
| 2026-03-23 13:59 | 43.29622 | -3.92527 | 32216 ft | 538 kts | 179° |
| 2026-03-23 14:00 | 43.22179 | -3.93624 | 32209 ft | 538 kts | 179° |
| 2026-03-23 14:00 | 43.14718 | -3.94718 | 32237 ft | 539 kts | 179° |
| 2026-03-23 14:01 | 43.07277 | -3.95820 | 32216 ft | 537 kts | 179° |
| 2026-03-23 14:01 | 42.99848 | -3.96920 | 32198 ft | 537 kts | 179° |
| 2026-03-23 14:02 | 42.92426 | -3.97998 | 32212 ft | 536 kts | 180° |
| 2026-03-23 14:02 | 42.85009 | -3.99074 | 32197 ft | 535 kts | 180° |
| 2026-03-23 14:03 | 42.77611 | -4.00160 | 32182 ft | 534 kts | 180° |
| 2026-03-23 14:03 | 42.70229 | -4.01237 | 32167 ft | 533 kts | 180° |
| 2026-03-23 14:04 | 42.62844 | -4.02304 | 32151 ft | 533 kts | 180° |
| 2026-03-23 14:04 | 42.55463 | -4.03373 | 32149 ft | 533 kts | 180° |
| 2026-03-23 14:05 | 42.48123 | -4.04438 | 32140 ft | 527 kts | 181° |
| 2026-03-23 14:05 | 42.40831 | -4.05479 | 32133 ft | 526 kts | 181° |
| 2026-03-23 14:06 | 42.33551 | -4.06510 | 32131 ft | 526 kts | 181° |
| 2026-03-23 14:06 | 42.26278 | -4.07560 | 32146 ft | 524 kts | 181° |
| 2026-03-23 14:07 | 42.19034 | -4.08596 | 32146 ft | 523 kts | 181° |
| 2026-03-23 14:07 | 42.11803 | -4.09627 | 32148 ft | 522 kts | 182° |
| 2026-03-23 14:08 | 42.04643 | -4.10653 | 32114 ft | 515 kts | 183° |
| 2026-03-23 14:08 | 41.97529 | -4.11605 | 32106 ft | 513 kts | 182° |
| 2026-03-23 14:09 | 41.90413 | -4.12382 | 32116 ft | 513 kts | 181° |
| 2026-03-23 14:09 | 41.83333 | -4.13121 | 32099 ft | 509 kts | 182° |
| 2026-03-23 14:10 | 41.76277 | -4.13912 | 32091 ft | 509 kts | 182° |
| 2026-03-23 14:10 | 41.69261 | -4.14730 | 32100 ft | 509 kts | 183° |
| 2026-03-23 14:11 | 41.62213 | -4.15541 | 32111 ft | 507 kts | 183° |
| 2026-03-23 14:11 | 41.55192 | -4.16327 | 32108 ft | 506 kts | 183° |
| 2026-03-23 14:12 | 41.48183 | -4.17110 | 32106 ft | 505 kts | 184° |
| 2026-03-23 14:12 | 41.41198 | -4.17890 | 32113 ft | 502 kts | 184° |
| 2026-03-23 14:13 | 41.34245 | -4.18678 | 32104 ft | 500 kts | 184° |
| 2026-03-23 14:13 | 41.27321 | -4.19456 | 32101 ft | 499 kts | 184° |
| 2026-03-23 14:14 | 41.20410 | -4.20218 | 32102 ft | 497 kts | 185° |
| 2026-03-23 14:14 | 41.13515 | -4.20987 | 32092 ft | 496 kts | 185° |
| 2026-03-23 14:15 | 41.06645 | -4.21759 | 32075 ft | 495 kts | 185° |
| 2026-03-23 14:15 | 40.99796 | -4.22522 | 32064 ft | 492 kts | 185° |
| 2026-03-23 14:16 | 40.92978 | -4.23280 | 32067 ft | 491 kts | 185° |
| 2026-03-23 14:16 | 40.86163 | -4.24034 | 32062 ft | 491 kts | 185° |
| 2026-03-23 14:17 | 40.79355 | -4.24782 | 32059 ft | 490 kts | 185° |
| 2026-03-23 14:17 | 40.72562 | -4.25525 | 32059 ft | 490 kts | 185° |
| 2026-03-23 14:18 | 40.65769 | -4.26273 | 32056 ft | 489 kts | 185° |
| 2026-03-23 14:18 | 40.58978 | -4.27016 | 32057 ft | 490 kts | 185° |
| 2026-03-23 14:19 | 40.52185 | -4.27758 | 32051 ft | 490 kts | 185° |
| 2026-03-23 14:19 | 40.45394 | -4.28496 | 32051 ft | 490 kts | 185° |
| 2026-03-23 14:20 | 40.38607 | -4.29236 | 32050 ft | 489 kts | 185° |
| 2026-03-23 14:20 | 40.31831 | -4.29974 | 32049 ft | 488 kts | 185° |
| 2026-03-23 14:21 | 40.25055 | -4.30707 | 32049 ft | 488 kts | 185° |
| 2026-03-23 14:21 | 40.18285 | -4.31435 | 32046 ft | 488 kts | 185° |
| 2026-03-23 14:22 | 40.11513 | -4.32172 | 32046 ft | 489 kts | 185° |
| 2026-03-23 14:22 | 40.04736 | -4.32900 | 32046 ft | 489 kts | 185° |
| 2026-03-23 14:23 | 39.97958 | -4.33628 | 32038 ft | 489 kts | 185° |
| 2026-03-23 14:23 | 39.91212 | -4.34704 | 32040 ft | 488 kts | 189° |
| 2026-03-23 14:24 | 39.84526 | -4.36264 | 32043 ft | 488 kts | 191° |
| 2026-03-23 14:24 | 39.77845 | -4.37872 | 32041 ft | 488 kts | 190° |
| 2026-03-23 14:25 | 39.71142 | -4.39339 | 32037 ft | 489 kts | 189° |
| 2026-03-23 14:25 | 39.64423 | -4.40729 | 32035 ft | 489 kts | 189° |
| 2026-03-23 14:26 | 39.57706 | -4.42134 | 32028 ft | 489 kts | 189° |
| 2026-03-23 14:27 | 39.47634 | -4.44285 | 32024 ft | 489 kts | 189° |
| 2026-03-23 14:27 | 39.40919 | -4.45716 | 32025 ft | 489 kts | 189° |
| 2026-03-23 14:28 | 39.34203 | -4.47133 | 32025 ft | 489 kts | 189° |
| 2026-03-23 14:28 | 39.27487 | -4.48552 | 32017 ft | 489 kts | 189° |
| 2026-03-23 14:29 | 39.20767 | -4.49974 | 32019 ft | 489 kts | 189° |
| 2026-03-23 14:29 | 39.15190 | -4.51147 | 32021 ft | 488 kts | 189° |
| 2026-03-23 14:30 | 39.08484 | -4.52550 | 32018 ft | 488 kts | 189° |
| 2026-03-23 14:30 | 39.01785 | -4.53949 | 32016 ft | 488 kts | 188° |
| 2026-03-23 14:31 | 38.95088 | -4.55351 | 32017 ft | 487 kts | 188° |
| 2026-03-23 14:31 | 38.88402 | -4.56750 | 32011 ft | 487 kts | 188° |
| 2026-03-23 14:32 | 38.81711 | -4.58143 | 31999 ft | 487 kts | 188° |
| 2026-03-23 14:32 | 38.75026 | -4.59540 | 32003 ft | 486 kts | 188° |
| 2026-03-23 14:33 | 38.68353 | -4.60927 | 32003 ft | 486 kts | 188° |
| 2026-03-23 14:33 | 38.61671 | -4.62320 | 32001 ft | 486 kts | 188° |
| 2026-03-23 14:34 | 38.55004 | -4.63708 | 31997 ft | 485 kts | 187° |
| 2026-03-23 14:34 | 38.48346 | -4.65090 | 32000 ft | 485 kts | 187° |
| 2026-03-23 14:35 | 38.41686 | -4.66458 | 31996 ft | 484 kts | 187° |
| 2026-03-23 14:35 | 38.35028 | -4.67826 | 31991 ft | 484 kts | 187° |
| 2026-03-23 14:36 | 38.28376 | -4.69190 | 31989 ft | 484 kts | 187° |
| 2026-03-23 14:36 | 38.21719 | -4.70552 | 31988 ft | 484 kts | 187° |
| 2026-03-23 14:37 | 38.15072 | -4.71911 | 31970 ft | 480 kts | 187° |
| 2026-03-23 14:37 | 38.11852 | -4.72576 | 31981 ft | 458 kts | 187° |
| 2026-03-23 14:37 | 38.08814 | -4.73207 | 31979 ft | 439 kts | 187° |
| 2026-03-23 14:37 | 38.05816 | -4.73830 | 31978 ft | 425 kts | 187° |
| 2026-03-23 14:38 | 38.02925 | -4.74425 | 31981 ft | 431 kts | 187° |
| 2026-03-23 14:38 | 37.97110 | -4.75608 | 31723 ft | 413 kts | 187° |
| 2026-03-23 14:38 | 37.94289 | -4.76179 | 31304 ft | 408 kts | 187° |
| 2026-03-23 14:39 | 37.91492 | -4.76743 | 30853 ft | 405 kts | 187° |
| 2026-03-23 14:39 | 37.88714 | -4.77302 | 30388 ft | 403 kts | 187° |
| 2026-03-23 14:39 | 37.85959 | -4.77857 | 29928 ft | 401 kts | 187° |
| 2026-03-23 14:39 | 37.83215 | -4.78410 | 29423 ft | 398 kts | 186° |
| 2026-03-23 14:40 | 37.80491 | -4.78961 | 28944 ft | 395 kts | 186° |
| 2026-03-23 14:40 | 37.77785 | -4.79419 | 28478 ft | 390 kts | 180° |
| 2026-03-23 14:40 | 37.75098 | -4.79310 | 28035 ft | 383 kts | 169° |
| 2026-03-23 14:40 | 37.72518 | -4.78599 | 27555 ft | 377 kts | 161° |
| 2026-03-23 14:41 | 37.69990 | -4.77706 | 27085 ft | 375 kts | 161° |
| 2026-03-23 14:41 | 37.67484 | -4.76827 | 26630 ft | 373 kts | 161° |
| 2026-03-23 14:41 | 37.64989 | -4.75954 | 26189 ft | 371 kts | 162° |
| 2026-03-23 14:41 | 37.62510 | -4.75089 | 25744 ft | 368 kts | 162° |
| 2026-03-23 14:42 | 37.60047 | -4.74232 | 25308 ft | 366 kts | 161° |
| 2026-03-23 14:42 | 37.57602 | -4.73381 | 24869 ft | 364 kts | 161° |
| 2026-03-23 14:42 | 37.55170 | -4.72535 | 24423 ft | 362 kts | 161° |
| 2026-03-23 14:42 | 37.52748 | -4.71691 | 23999 ft | 360 kts | 161° |
| 2026-03-23 14:43 | 37.50346 | -4.70853 | 23572 ft | 358 kts | 161° |
| 2026-03-23 14:43 | 37.47958 | -4.70018 | 23092 ft | 355 kts | 162° |
| 2026-03-23 14:43 | 37.45580 | -4.69190 | 22627 ft | 353 kts | 162° |
| 2026-03-23 14:43 | 37.43220 | -4.68374 | 22185 ft | 350 kts | 162° |
| 2026-03-23 14:44 | 37.40877 | -4.67566 | 21764 ft | 348 kts | 162° |
| 2026-03-23 14:44 | 37.38567 | -4.66696 | 21341 ft | 344 kts | 156° |
| 2026-03-23 14:44 | 37.36456 | -4.65346 | 20969 ft | 338 kts | 147° |
| 2026-03-23 14:44 | 37.34439 | -4.63847 | 20569 ft | 336 kts | 147° |
| 2026-03-23 14:45 | 37.32431 | -4.62368 | 20176 ft | 334 kts | 147° |
| 2026-03-23 14:45 | 37.30430 | -4.60901 | 19775 ft | 332 kts | 147° |
| 2026-03-23 14:45 | 37.28431 | -4.59464 | 19391 ft | 331 kts | 152° |
| 2026-03-23 14:45 | 37.26275 | -4.58476 | 19017 ft | 331 kts | 165° |
| 2026-03-23 14:46 | 37.23993 | -4.58152 | 18663 ft | 331 kts | 178° |
| 2026-03-23 14:46 | 37.21692 | -4.58151 | 18285 ft | 330 kts | 178° |
| 2026-03-23 14:46 | 37.19401 | -4.58141 | 17882 ft | 328 kts | 178° |
| 2026-03-23 14:47 | 37.14860 | -4.58102 | 17087 ft | 325 kts | 178° |
| 2026-03-23 14:47 | 37.12608 | -4.58078 | 16728 ft | 322 kts | 178° |
| 2026-03-23 14:47 | 37.10384 | -4.58054 | 16509 ft | 316 kts | 178° |
| 2026-03-23 14:47 | 37.08217 | -4.58037 | 16376 ft | 307 kts | 178° |
| 2026-03-23 14:48 | 37.06112 | -4.58022 | 16240 ft | 298 kts | 178° |
| 2026-03-23 14:48 | 37.04054 | -4.58004 | 16004 ft | 294 kts | 178° |
| 2026-03-23 14:48 | 37.02015 | -4.57985 | 15720 ft | 292 kts | 178° |
| 2026-03-23 14:48 | 36.99989 | -4.57967 | 15425 ft | 291 kts | 178° |
| 2026-03-23 14:49 | 36.97970 | -4.57949 | 15131 ft | 289 kts | 178° |
| 2026-03-23 14:49 | 36.95979 | -4.58092 | 14962 ft | 284 kts | 194° |
| 2026-03-23 14:49 | 36.94295 | -4.59279 | 14798 ft | 280 kts | 227° |
| 2026-03-23 14:49 | 36.93390 | -4.61385 | 14543 ft | 277 kts | 259° |
| 2026-03-23 14:50 | 36.93279 | -4.63782 | 14224 ft | 277 kts | 270° |
| 2026-03-23 14:50 | 36.93383 | -4.66172 | 13939 ft | 276 kts | 286° |
| 2026-03-23 14:50 | 36.94289 | -4.68234 | 13665 ft | 271 kts | 316° |
| 2026-03-23 14:50 | 36.95878 | -4.69423 | 13327 ft | 267 kts | 347° |
| 2026-03-23 14:51 | 36.97715 | -4.69602 | 12990 ft | 266 kts | 1° |
| 2026-03-23 14:51 | 36.99557 | -4.69608 | 12754 ft | 262 kts | 1° |
| 2026-03-23 14:51 | 37.01356 | -4.69621 | 12618 ft | 255 kts | 0° |
| 2026-03-23 14:51 | 37.03102 | -4.69636 | 12458 ft | 248 kts | 0° |
| 2026-03-23 14:52 | 37.04818 | -4.69652 | 12204 ft | 245 kts | 0° |
| 2026-03-23 14:52 | 37.06521 | -4.69669 | 11919 ft | 244 kts | 0° |
| 2026-03-23 14:52 | 37.08211 | -4.69686 | 11627 ft | 242 kts | 0° |
| 2026-03-23 14:52 | 37.09895 | -4.69704 | 11336 ft | 241 kts | 0° |
| 2026-03-23 14:53 | 37.11569 | -4.69721 | 11049 ft | 240 kts | 0° |
| 2026-03-23 14:53 | 37.13230 | -4.69738 | 10756 ft | 238 kts | 0° |
| 2026-03-23 14:53 | 37.14885 | -4.69753 | 10452 ft | 238 kts | 0° |
| 2026-03-23 14:53 | 37.16542 | -4.69767 | 10117 ft | 238 kts | 0° |
| 2026-03-23 14:54 | 37.18172 | -4.70050 | 9800 ft | 238 kts | 336° |
| 2026-03-23 14:54 | 37.19445 | -4.71327 | 9441 ft | 237 kts | 303° |
| 2026-03-23 14:54 | 37.19967 | -4.73251 | 9076 ft | 235 kts | 269° |
| 2026-03-23 14:54 | 37.19784 | -4.75282 | 8690 ft | 235 kts | 264° |
| 2026-03-23 14:55 | 37.19645 | -4.77327 | 8322 ft | 235 kts | 257° |
| 2026-03-23 14:55 | 37.18936 | -4.79127 | 7993 ft | 230 kts | 224° |
| 2026-03-23 14:55 | 37.17580 | -4.80109 | 7643 ft | 227 kts | 190° |
| 2026-03-23 14:55 | 37.16016 | -4.80202 | 7272 ft | 226 kts | 178° |
| 2026-03-23 14:56 | 37.14438 | -4.80180 | 6930 ft | 227 kts | 178° |
| 2026-03-23 14:56 | 37.12860 | -4.80161 | 6603 ft | 227 kts | 179° |
| 2026-03-23 14:56 | 37.11282 | -4.80145 | 6271 ft | 227 kts | 178° |
| 2026-03-23 14:56 | 37.09702 | -4.80127 | 5929 ft | 227 kts | 178° |
| 2026-03-23 14:57 | 37.08126 | -4.80112 | 5626 ft | 225 kts | 179° |
| 2026-03-23 14:57 | 37.06563 | -4.80096 | 5326 ft | 224 kts | 179° |
| 2026-03-23 14:57 | 37.05004 | -4.80080 | 5014 ft | 223 kts | 179° |
| 2026-03-23 14:57 | 37.03452 | -4.80064 | 4707 ft | 223 kts | 179° |
| 2026-03-23 14:58 | 37.01908 | -4.80049 | 4402 ft | 221 kts | 179° |
| 2026-03-23 14:58 | 37.00378 | -4.80033 | 4109 ft | 219 kts | 179° |
| 2026-03-23 14:58 | 36.98860 | -4.80015 | 3818 ft | 217 kts | 179° |
| 2026-03-23 14:58 | 36.97356 | -4.79998 | 3529 ft | 215 kts | 179° |
| 2026-03-23 14:59 | 36.95866 | -4.79983 | 3248 ft | 214 kts | 179° |
| 2026-03-23 14:59 | 36.94371 | -4.79967 | 3203 ft | 217 kts | 179° |
| 2026-03-23 14:59 | 36.92875 | -4.79783 | 4042 ft | 218 kts | 166° |
| 2026-03-23 14:59 | 36.91379 | -4.79213 | 4060 ft | 222 kts | 160° |
| 2026-03-23 15:00 | 36.89937 | -4.78584 | 4024 ft | 218 kts | 160° |
| 2026-03-23 15:00 | 36.88511 | -4.77947 | 4017 ft | 218 kts | 159° |
| 2026-03-23 15:00 | 36.87139 | -4.77192 | 4014 ft | 215 kts | 146° |
| 2026-03-23 15:00 | 36.86018 | -4.75965 | 4016 ft | 214 kts | 130° |
| 2026-03-23 15:01 | 36.85031 | -4.74569 | 4013 ft | 214 kts | 130° |
| 2026-03-23 15:01 | 36.84044 | -4.73175 | 4021 ft | 215 kts | 130° |
| 2026-03-23 15:01 | 36.83056 | -4.71782 | 4022 ft | 214 kts | 130° |
| 2026-03-23 15:01 | 36.82072 | -4.70396 | 4021 ft | 213 kts | 130° |
| 2026-03-23 15:02 | 36.81088 | -4.69009 | 3920 ft | 214 kts | 130° |
| 2026-03-23 15:02 | 36.80104 | -4.67625 | 3685 ft | 212 kts | 130° |
| 2026-03-23 15:02 | 36.79129 | -4.66251 | 3400 ft | 211 kts | 130° |
| 2026-03-23 15:02 | 36.78161 | -4.64890 | 3114 ft | 209 kts | 130° |
| 2026-03-23 15:03 | 36.77200 | -4.63538 | 2811 ft | 208 kts | 130° |
| 2026-03-23 15:03 | 36.76249 | -4.62202 | 2539 ft | 203 kts | 130° |
| 2026-03-23 15:03 | 36.75324 | -4.60902 | 2231 ft | 199 kts | 131° |
| 2026-03-23 15:03 | 36.74434 | -4.59652 | 1958 ft | 185 kts | 131° |
| 2026-03-23 15:04 | 36.73613 | -4.58499 | 1700 ft | 169 kts | 131° |
| 2026-03-23 15:04 | 36.72872 | -4.57458 | 1475 ft | 152 kts | 132° |
| 2026-03-23 15:04 | 36.72207 | -4.56525 | 1277 ft | 141 kts | 130° |
| 2026-03-23 15:04 | 36.71554 | -4.55609 | 1071 ft | 135 kts | 130° |
| 2026-03-23 15:05 | 36.70946 | -4.54757 | 888 ft | 131 kts | 131° |
| 2026-03-23 15:05 | 36.70341 | -4.53909 | 694 ft | 131 kts | 132° |
| 2026-03-23 15:05 | 36.69737 | -4.53062 | 516 ft | 130 kts | 132° |
| 2026-03-23 15:05 | 36.69137 | -4.52218 | 334 ft | 129 kts | 130° |
| 2026-03-23 15:06 | 36.68553 | -4.51393 | 119 ft | 126 kts | 132° |
| 2026-03-23 15:06 | 36.68014 | -4.50640 | 47 ft | 96 kts | 132° |
| 2026-03-23 15:06 | 36.67770 | -4.50293 | 48 ft | 30 kts | 122° |
| 2026-03-23 15:06 | 36.67720 | -4.50077 | 49 ft | 17 kts | 102° |
| 2026-03-23 15:07 | 36.67706 | -4.49972 | 46 ft | 10 kts | 97° |
| 2026-03-23 15:07 | 36.67724 | -4.49894 | 49 ft | 7 kts | 50° |
| 2026-03-23 15:07 | 36.67750 | -4.49855 | 49 ft | 2 kts | 65° |
| 2026-03-23 15:07 | 36.67737 | -4.49821 | 49 ft | 10 kts | 132° |
| 2026-03-23 15:08 | 36.67681 | -4.49740 | 48 ft | 11 kts | 130° |
| 2026-03-23 15:08 | 36.67699 | -4.49683 | 49 ft | 7 kts | 39° |
| 2026-03-23 15:08 | 36.67736 | -4.49644 | 49 ft | 7 kts | 41° |
| 2026-03-23 15:08 | 36.67760 | -4.49618 | 49 ft | 0 kts | 40° |